createdAt,value
2018-08-25T00:02:20.307Z,4.20
2018-08-25T00:04:50.672Z,4.10
2018-08-25T00:07:20.540Z,5.93
2018-08-25T00:09:50.423Z,5.73
2018-08-25T00:12:20.291Z,4.47
2018-08-25T00:14:50.180Z,3.17
2018-08-25T00:17:20.138Z,4.50
2018-08-25T00:19:50.023Z,3.80
2018-08-25T00:22:19.896Z,4.00
2018-08-25T00:24:49.766Z,6.23
2018-08-25T00:27:19.646Z,3.47
2018-08-25T00:29:49.532Z,4.60
2018-08-25T00:32:19.418Z,5.83
2018-08-25T00:34:49.294Z,6.57
2018-08-25T00:37:19.183Z,3.77
2018-08-25T00:39:49.087Z,6.23
2018-08-25T00:42:18.963Z,3.97
2018-08-25T00:44:48.842Z,4.40
2018-08-25T00:47:18.707Z,8.20
2018-08-25T00:49:48.595Z,3.03
2018-08-25T00:52:18.514Z,4.70
2018-08-25T00:54:48.402Z,3.23
2018-08-25T00:57:18.291Z,4.30
2018-08-25T00:59:48.179Z,2.40
2018-08-25T01:02:18.060Z,4.47
2018-08-25T01:04:48.066Z,3.57
2018-08-25T01:07:17.942Z,2.33
2018-08-25T01:09:47.830Z,4.27
2018-08-25T01:12:17.710Z,3.30
2018-08-25T01:14:47.582Z,2.70
2018-08-25T01:17:17.466Z,3.30
2018-08-25T01:19:47.352Z,5.83
2018-08-25T01:22:17.243Z,3.00
2018-08-25T01:24:47.132Z,4.97
2018-08-25T01:27:17.014Z,8.10
2018-08-25T01:29:46.882Z,4.17
2018-08-25T01:32:16.767Z,2.53
2018-08-25T01:34:46.626Z,2.23
2018-08-25T01:37:16.510Z,2.70
2018-08-25T01:39:46.380Z,4.57
2018-08-25T01:42:16.247Z,2.77
2018-08-25T01:44:46.110Z,5.37
2018-08-25T01:47:16.006Z,3.90
2018-08-25T01:49:45.878Z,4.63
2018-08-25T01:52:15.763Z,2.87
2018-08-25T01:54:45.643Z,2.67
2018-08-25T01:57:15.526Z,4.30
2018-08-25T01:59:45.393Z,4.13
2018-08-25T02:02:15.277Z,4.63
2018-08-25T02:04:45.195Z,2.87
2018-08-25T02:07:15.063Z,3.20
2018-08-25T02:09:44.939Z,5.43
2018-08-25T02:12:14.867Z,6.57
2018-08-25T02:14:44.782Z,3.50
2018-08-25T02:17:14.655Z,2.57
2018-08-25T02:19:44.551Z,2.97
2018-08-25T02:22:14.442Z,2.50
2018-08-25T02:24:44.305Z,3.73
2018-08-25T02:27:14.187Z,4.30
2018-08-25T02:29:44.065Z,2.63
2018-08-25T02:32:13.947Z,7.30
2018-08-25T02:34:43.818Z,3.40
2018-08-25T02:37:13.707Z,4.10
2018-08-25T02:39:43.593Z,5.30
2018-08-25T02:42:13.512Z,3.30
2018-08-25T02:44:43.382Z,5.53
2018-08-25T02:47:13.277Z,3.00
2018-08-25T02:49:43.156Z,6.40
2018-08-25T02:52:13.027Z,3.57
2018-08-25T02:54:42.898Z,4.93
2018-08-25T02:57:12.897Z,4.73
2018-08-25T02:59:42.753Z,2.13
2018-08-25T03:02:12.651Z,3.50
2018-08-25T03:04:42.556Z,4.87
2018-08-25T03:07:12.487Z,2.73
2018-08-25T03:09:42.384Z,2.40
2018-08-25T03:12:12.266Z,3.20
2018-08-25T03:14:42.153Z,2.00
2018-08-25T03:17:12.057Z,1.90
2018-08-25T03:19:41.943Z,3.60
2018-08-25T03:22:11.851Z,3.30
2018-08-25T03:24:41.743Z,4.13
2018-08-25T03:27:11.643Z,3.63
2018-08-25T03:29:41.556Z,7.20
2018-08-25T03:32:11.454Z,2.93
2018-08-25T03:34:41.351Z,3.53
2018-08-25T03:37:11.823Z,2.03
2018-08-25T03:39:41.719Z,3.30
2018-08-25T03:42:11.611Z,2.83
2018-08-25T03:44:41.802Z,2.20
2018-08-25T03:47:11.703Z,3.90
2018-08-25T03:49:41.591Z,3.20
2018-08-25T03:52:11.499Z,5.10
2018-08-25T03:54:41.391Z,2.47
2018-08-25T03:57:11.300Z,2.30
2018-08-25T03:59:41.204Z,2.00
2018-08-25T04:02:11.122Z,3.77
2018-08-25T04:04:41.054Z,2.67
2018-08-25T04:07:10.990Z,2.97
2018-08-25T04:09:40.911Z,3.07
2018-08-25T04:12:10.813Z,2.30
2018-08-25T04:14:40.747Z,2.73
2018-08-25T04:17:10.647Z,2.17
2018-08-25T04:19:40.530Z,2.33
2018-08-25T04:22:10.427Z,3.93
2018-08-25T04:24:40.335Z,2.30
2018-08-25T04:27:10.244Z,2.87
2018-08-25T04:29:40.133Z,4.03
2018-08-25T04:32:10.039Z,1.80
2018-08-25T04:34:39.936Z,2.87
2018-08-25T04:37:16.152Z,3.33
2018-08-25T04:39:46.035Z,2.77
2018-08-25T04:42:15.971Z,3.90
2018-08-25T04:44:45.886Z,2.87
2018-08-25T04:47:15.792Z,3.27
2018-08-25T04:49:45.698Z,2.93
2018-08-25T04:52:15.600Z,4.47
2018-08-25T04:54:45.487Z,3.00
2018-08-25T04:57:15.411Z,4.00
2018-08-25T04:59:45.349Z,4.00
2018-08-25T05:02:15.187Z,4.50
2018-08-25T05:04:45.054Z,5.73
2018-08-25T05:07:14.930Z,8.93
2018-08-25T05:09:44.807Z,6.20
2018-08-25T05:12:14.690Z,4.77
2018-08-25T05:14:44.554Z,4.07
2018-08-25T05:17:14.463Z,5.83
2018-08-25T05:19:44.347Z,2.77
2018-08-25T05:22:14.231Z,4.20
2018-08-25T05:24:44.127Z,3.47
2018-08-25T05:27:14.059Z,3.53
2018-08-25T05:29:44.110Z,3.73
2018-08-25T05:32:14.044Z,3.97
2018-08-25T05:34:43.918Z,5.13
2018-08-25T05:37:14.020Z,4.87
2018-08-25T05:39:43.907Z,5.27
2018-08-25T05:42:13.770Z,6.17
2018-08-25T05:44:43.638Z,6.23
2018-08-25T05:47:13.587Z,5.37
2018-08-25T05:49:43.512Z,3.67
2018-08-25T05:52:13.384Z,7.83
2018-08-25T05:54:43.282Z,5.63
2018-08-25T05:57:13.158Z,5.07
2018-08-25T05:59:43.043Z,6.37
2018-08-25T06:02:12.928Z,7.60
2018-08-25T06:04:42.803Z,4.13
2018-08-25T06:07:12.731Z,7.60
2018-08-25T06:09:42.668Z,4.30
2018-08-25T06:12:12.672Z,4.23
2018-08-25T06:14:42.552Z,3.87
2018-08-25T06:17:12.439Z,6.40
2018-08-25T06:19:42.319Z,7.13
2018-08-25T06:22:12.191Z,4.73
2018-08-25T06:24:42.139Z,4.83
2018-08-25T06:27:12.010Z,4.97
2018-08-25T06:29:41.929Z,6.03
2018-08-25T06:32:11.758Z,5.83
2018-08-25T06:34:41.763Z,6.70
2018-08-25T06:37:11.627Z,6.00
2018-08-25T06:39:41.502Z,8.70
2018-08-25T06:42:11.417Z,7.77
2018-08-25T06:44:41.334Z,4.07
2018-08-25T06:47:11.217Z,5.17
2018-08-25T06:49:41.101Z,5.90
2018-08-25T06:52:10.952Z,4.50
2018-08-25T06:54:40.843Z,5.67
2018-08-25T06:57:10.747Z,4.97
2018-08-25T06:59:40.650Z,6.73
2018-08-25T07:02:10.488Z,9.03
2018-08-25T07:04:40.358Z,5.60
2018-08-25T07:07:10.239Z,5.97
2018-08-25T07:09:40.122Z,5.43
2018-08-25T07:12:09.988Z,6.50
2018-08-25T07:14:39.950Z,4.13
2018-08-25T07:17:09.879Z,7.07
2018-08-25T07:19:39.771Z,6.30
2018-08-25T07:22:09.641Z,5.30
2018-08-25T07:24:39.543Z,5.93
2018-08-25T07:27:09.417Z,9.80
2018-08-25T07:29:39.304Z,3.40
2018-08-25T07:32:09.225Z,7.10
2018-08-25T07:34:39.083Z,5.73
2018-08-25T07:37:08.973Z,7.53
2018-08-25T07:39:39.086Z,5.77
2018-08-25T07:42:08.973Z,5.73
2018-08-25T07:44:38.862Z,5.97
2018-08-25T07:47:08.837Z,5.07
2018-08-25T07:49:38.837Z,5.10
2018-08-25T07:52:08.663Z,6.83
2018-08-25T07:54:38.567Z,5.23
2018-08-25T07:57:08.422Z,4.47
2018-08-25T07:59:38.303Z,6.53
2018-08-25T08:02:08.515Z,8.13
2018-08-25T08:04:38.436Z,6.43
2018-08-25T08:07:08.303Z,7.57
2018-08-25T08:09:38.171Z,5.07
2018-08-25T08:12:08.091Z,5.33
2018-08-25T08:14:37.947Z,8.97
2018-08-25T08:17:07.808Z,6.83
2018-08-25T08:19:37.684Z,5.67
2018-08-25T08:22:07.671Z,8.40
2018-08-25T08:24:37.610Z,5.57
2018-08-25T08:27:07.246Z,6.47
2018-08-25T08:29:37.198Z,7.07
2018-08-25T08:32:07.376Z,9.03
2018-08-25T08:34:37.594Z,4.80
2018-08-25T08:37:10.964Z,5.73
2018-08-25T08:39:40.935Z,4.83
2018-08-25T08:42:10.760Z,5.63
2018-08-25T08:44:40.604Z,3.93
2018-08-25T08:47:10.497Z,8.13
2018-08-25T08:49:46.598Z,5.03
2018-08-25T08:52:10.273Z,5.60
2018-08-25T08:54:40.150Z,6.80
2018-08-25T08:57:13.298Z,4.53
2018-08-25T08:59:43.196Z,4.97
2018-08-25T09:02:13.096Z,3.47
2018-08-25T09:04:42.982Z,7.90
2018-08-25T09:07:12.871Z,5.17
2018-08-25T09:09:42.767Z,4.17
2018-08-25T09:12:12.680Z,3.00
2018-08-25T09:14:42.566Z,4.53
2018-08-25T09:17:12.475Z,4.20
2018-08-25T09:19:42.407Z,3.40
2018-08-25T09:22:12.324Z,5.10
2018-08-25T09:24:42.290Z,4.07
2018-08-25T09:27:12.228Z,3.37
2018-08-25T09:29:42.163Z,4.23
2018-08-25T09:32:12.091Z,4.53
2018-08-25T09:34:41.987Z,5.00
2018-08-25T09:37:11.914Z,4.90
2018-08-25T09:39:41.813Z,3.33
2018-08-25T09:42:11.716Z,4.60
2018-08-25T09:44:41.617Z,3.90
2018-08-25T09:47:11.551Z,4.40
2018-08-25T09:49:41.419Z,5.20
2018-08-25T09:52:11.302Z,6.20
2018-08-25T09:54:41.174Z,4.03
2018-08-25T09:57:11.055Z,5.50
2018-08-25T09:59:40.931Z,3.40
2018-08-25T10:02:10.848Z,3.77
2018-08-25T10:04:40.734Z,4.90
2018-08-25T10:07:10.667Z,4.43
2018-08-25T10:09:40.567Z,2.53
2018-08-25T10:12:10.513Z,3.83
2018-08-25T10:14:40.384Z,4.17
2018-08-25T10:17:10.275Z,4.47
2018-08-25T10:19:40.178Z,2.70
2018-08-25T10:22:10.091Z,2.67
2018-08-25T10:24:39.982Z,2.93
2018-08-25T10:27:09.957Z,4.43
2018-08-25T10:29:39.850Z,3.33
2018-08-25T10:32:09.831Z,3.40
2018-08-25T10:34:39.743Z,2.50
2018-08-25T10:37:09.846Z,3.97
2018-08-25T10:39:39.743Z,2.47
2018-08-25T10:42:09.710Z,2.27
2018-08-25T10:44:39.545Z,4.10
2018-08-25T10:47:09.442Z,2.40
2018-08-25T10:49:39.367Z,2.93
2018-08-25T10:52:09.306Z,2.43
2018-08-25T10:54:39.266Z,2.13
2018-08-25T10:57:09.166Z,2.83
2018-08-25T10:59:39.095Z,2.93
2018-08-25T11:02:14.879Z,1.93
2018-08-25T11:04:44.746Z,2.40
2018-08-25T11:07:14.626Z,3.57
2018-08-25T11:09:44.508Z,2.30
2018-08-25T11:12:14.380Z,2.97
2018-08-25T11:14:44.332Z,4.13
2018-08-25T11:17:14.346Z,3.87
2018-08-25T11:19:44.223Z,2.30
2018-08-25T11:22:14.139Z,2.20
2018-08-25T11:24:44.006Z,1.70
2018-08-25T11:27:13.920Z,2.40
2018-08-25T11:29:43.827Z,2.70
2018-08-25T11:32:13.703Z,2.00
2018-08-25T11:34:43.574Z,1.70
2018-08-25T11:37:13.528Z,1.67
2018-08-25T11:39:43.348Z,2.03
2018-08-25T11:42:13.235Z,2.10
2018-08-25T11:44:43.143Z,2.00
2018-08-25T11:47:14.077Z,1.70
2018-08-25T11:49:44.672Z,2.10
2018-08-25T11:52:14.586Z,2.83
2018-08-25T11:54:44.822Z,6.10
2018-08-25T11:57:14.739Z,2.40
2018-08-25T11:59:44.632Z,2.10
2018-08-25T12:02:14.575Z,2.90
2018-08-25T12:04:44.443Z,2.00
2018-08-25T12:07:14.322Z,2.60
2018-08-25T12:09:44.220Z,1.87
2018-08-25T12:12:14.103Z,1.83
2018-08-25T12:14:43.987Z,2.20
2018-08-25T12:17:13.906Z,1.60
2018-08-25T12:19:43.809Z,2.00
2018-08-25T12:22:13.691Z,1.97
2018-08-25T12:24:43.567Z,1.60
2018-08-25T12:27:13.471Z,3.60
2018-08-25T12:29:43.353Z,2.00
2018-08-25T12:32:13.219Z,1.73
2018-08-25T12:34:43.088Z,1.77
2018-08-25T12:37:12.984Z,1.70
2018-08-25T12:39:42.887Z,1.50
2018-08-25T12:42:12.768Z,1.83
2018-08-25T12:44:42.643Z,3.23
2018-08-25T12:47:12.519Z,1.57
2018-08-25T12:49:42.388Z,2.87
2018-08-25T12:52:12.271Z,1.57
2018-08-25T12:54:42.148Z,1.83
2018-08-25T12:57:12.099Z,2.63
2018-08-25T12:59:41.979Z,2.13
2018-08-25T13:02:11.858Z,2.17
2018-08-25T13:04:42.507Z,1.70
2018-08-25T13:07:13.669Z,1.57
2018-08-25T13:09:44.410Z,1.80
2018-08-25T13:12:14.880Z,2.50
2018-08-25T13:14:44.822Z,1.40
2018-08-25T13:17:14.663Z,1.83
2018-08-25T13:19:44.550Z,2.33
2018-08-25T13:22:14.414Z,1.63
2018-08-25T13:24:44.299Z,1.50
2018-08-25T13:27:14.189Z,1.97
2018-08-25T13:29:44.055Z,2.23
2018-08-25T13:32:13.936Z,2.47
2018-08-25T13:34:43.819Z,1.40
2018-08-25T13:37:13.706Z,1.30
2018-08-25T13:39:43.591Z,1.87
2018-08-25T13:42:13.478Z,1.40
2018-08-25T13:44:43.368Z,1.50
2018-08-25T13:47:13.244Z,2.20
2018-08-25T13:49:43.151Z,1.70
2018-08-25T13:52:13.035Z,1.50
2018-08-25T13:54:42.917Z,1.53
2018-08-25T13:57:12.783Z,1.60
2018-08-25T13:59:42.771Z,1.40
2018-08-25T14:02:13.315Z,2.47
2018-08-25T14:04:43.223Z,3.07
2018-08-25T14:07:13.126Z,1.60
2018-08-25T14:09:43.216Z,1.70
2018-08-25T14:12:13.106Z,1.50
2018-08-25T14:14:43.072Z,1.60
2018-08-25T14:17:12.971Z,1.87
2018-08-25T14:19:42.925Z,2.00
2018-08-25T14:22:12.844Z,2.00
2018-08-25T14:24:42.731Z,1.93
2018-08-25T14:27:12.636Z,2.10
2018-08-25T14:29:42.651Z,1.93
2018-08-25T14:32:12.558Z,1.60
2018-08-25T14:34:42.452Z,2.47
2018-08-25T14:37:12.436Z,1.63
2018-08-25T14:39:42.343Z,2.23
2018-08-25T14:42:15.150Z,1.80
2018-08-25T14:44:45.626Z,2.23
2018-08-25T14:47:15.589Z,1.50
2018-08-25T14:49:45.428Z,1.40
2018-08-25T14:52:15.559Z,1.50
2018-08-25T14:54:45.479Z,1.90
2018-08-25T14:57:15.381Z,1.40
2018-08-25T14:59:45.319Z,1.77
2018-08-25T15:02:15.312Z,1.73
2018-08-25T15:04:45.201Z,1.90
2018-08-25T15:07:15.493Z,2.57
2018-08-25T15:09:45.379Z,1.17
2018-08-25T15:14:54.663Z,1.63
2018-08-25T15:17:24.539Z,1.27
2018-08-25T15:19:54.432Z,1.40
2018-08-25T15:22:24.356Z,1.50
2018-08-25T15:24:54.783Z,1.20
2018-08-25T15:27:25.446Z,1.40
2018-08-25T15:29:56.277Z,2.57
2018-08-25T15:32:26.143Z,1.40
2018-08-25T15:34:56.033Z,2.90
2018-08-25T15:37:25.906Z,1.10
2018-08-25T15:39:55.799Z,1.30
2018-08-25T15:42:25.670Z,1.37
2018-08-25T15:44:55.707Z,2.77
2018-08-25T15:47:25.719Z,0.93
2018-08-25T15:49:55.861Z,1.33
2018-08-25T15:52:25.851Z,1.43
2018-08-25T15:54:55.731Z,1.87
2018-08-25T15:57:25.704Z,1.67
2018-08-25T15:59:55.494Z,1.23
2018-08-25T16:02:25.401Z,2.50
2018-08-25T16:04:55.574Z,1.23
2018-08-25T16:07:25.480Z,1.60
2018-08-25T16:09:55.688Z,1.60
2018-08-25T16:12:25.693Z,0.90
2018-08-25T16:14:55.581Z,2.70
2018-08-25T16:17:25.471Z,1.10
2018-08-25T16:19:55.503Z,1.10
2018-08-25T16:22:25.287Z,2.07
2018-08-25T16:24:55.247Z,1.40
2018-08-25T16:27:25.167Z,6.33
2018-08-25T16:29:55.111Z,1.03
2018-08-25T16:32:25.073Z,1.70
2018-08-25T16:34:54.980Z,1.30
2018-08-25T16:37:24.892Z,1.33
2018-08-25T16:39:54.794Z,1.30
2018-08-25T16:42:24.678Z,9.37
2018-08-25T16:44:54.580Z,1.57
2018-08-25T16:47:24.471Z,1.37
2018-08-25T16:49:54.404Z,1.30
2018-08-25T16:52:24.298Z,1.23
2018-08-25T16:54:54.478Z,1.67
2018-08-25T16:57:24.382Z,1.53
2018-08-25T16:59:54.299Z,3.17
2018-08-25T17:02:24.203Z,1.43
2018-08-25T17:04:54.159Z,1.17
2018-08-25T17:07:24.055Z,1.50
2018-08-25T17:09:54.057Z,1.40
2018-08-25T17:12:24.066Z,1.33
2018-08-25T17:14:56.042Z,1.53
2018-08-25T17:17:25.915Z,4.27
2018-08-25T17:19:55.802Z,1.73
2018-08-25T17:22:25.704Z,1.50
2018-08-25T17:24:55.583Z,1.67
2018-08-25T17:27:25.514Z,1.40
2018-08-25T17:29:55.406Z,1.40
2018-08-25T17:32:25.303Z,1.97
2018-08-25T17:34:55.182Z,1.50
2018-08-25T17:37:25.079Z,1.80
2018-08-25T17:39:54.980Z,1.63
2018-08-25T17:42:24.903Z,2.33
2018-08-25T17:44:54.820Z,2.00
2018-08-25T17:47:24.674Z,1.27
2018-08-25T17:49:54.739Z,2.73
2018-08-25T17:52:24.623Z,2.67
2018-08-25T17:54:54.495Z,2.42
2018-08-25T17:57:24.509Z,1.93
2018-08-25T17:59:54.279Z,1.73
2018-08-25T18:02:24.208Z,2.87
2018-08-25T18:04:54.122Z,2.20
2018-08-25T18:07:24.235Z,2.80
2018-08-25T18:09:54.349Z,3.10
2018-08-25T18:12:24.298Z,3.23
2018-08-25T18:14:54.206Z,3.63
2018-08-25T18:17:24.175Z,3.83
2018-08-25T18:19:54.023Z,3.50
2018-08-25T18:22:23.943Z,5.00
2018-08-25T18:24:53.836Z,3.10
2018-08-25T18:27:23.747Z,4.10
2018-08-25T18:29:53.644Z,2.07
2018-08-25T18:32:23.551Z,2.13
2018-08-25T18:34:53.475Z,2.00
2018-08-25T18:37:23.391Z,1.57
2018-08-25T18:39:53.291Z,1.53
2018-08-25T18:42:23.255Z,1.80
2018-08-25T18:44:53.118Z,1.60
2018-08-25T18:47:23.016Z,1.63
2018-08-25T18:49:52.914Z,3.50
2018-08-25T18:52:22.815Z,1.27
2018-08-25T18:54:52.770Z,1.40
2018-08-25T18:57:22.664Z,2.73
2018-08-25T18:59:52.567Z,1.57
2018-08-25T19:02:22.568Z,2.07
2018-08-25T19:04:52.394Z,1.83
2018-08-25T19:07:22.312Z,3.10
2018-08-25T19:09:52.208Z,2.30
2018-08-25T19:12:22.115Z,2.50
2018-08-25T19:14:52.020Z,2.23
2018-08-25T19:17:21.926Z,1.50
2018-08-25T19:19:51.827Z,1.90
2018-08-25T19:22:21.735Z,1.43
2018-08-25T19:24:51.643Z,1.70
2018-08-25T19:27:22.070Z,1.40
2018-08-25T19:29:52.093Z,1.73
2018-08-25T19:32:21.870Z,1.60
2018-08-25T19:34:51.771Z,2.40
2018-08-25T19:37:21.688Z,3.13
2018-08-25T19:39:51.590Z,2.60
2018-08-25T19:42:21.513Z,2.77
2018-08-25T19:44:51.391Z,2.33
2018-08-25T19:47:21.318Z,2.40
2018-08-25T19:49:51.276Z,4.47
2018-08-25T19:52:21.266Z,2.47
2018-08-25T19:54:51.164Z,2.43
2018-08-25T19:57:21.063Z,3.73
2018-08-25T19:59:51.255Z,3.60
2018-08-25T20:02:21.131Z,2.20
2018-08-25T20:04:50.992Z,2.33
2018-08-25T20:07:20.860Z,2.30
2018-08-25T20:09:50.729Z,2.70
2018-08-25T20:12:20.607Z,2.00
2018-08-25T20:14:50.467Z,1.90
2018-08-25T20:17:20.354Z,1.90
2018-08-25T20:19:50.207Z,2.93
2018-08-25T20:22:20.079Z,2.47
2018-08-25T20:24:49.938Z,1.83
2018-08-25T20:27:19.796Z,3.37
2018-08-25T20:29:49.694Z,3.07
2018-08-25T20:32:19.510Z,2.43
2018-08-25T20:34:49.375Z,3.47
2018-08-25T20:37:19.261Z,2.37
2018-08-25T20:39:49.123Z,1.80
2018-08-25T20:42:18.986Z,1.93
2018-08-25T20:44:48.996Z,2.00
2018-08-25T20:47:18.850Z,1.70
2018-08-25T20:49:48.776Z,1.90
2018-08-25T20:52:18.643Z,1.87
2018-08-25T20:54:48.517Z,1.70
2018-08-25T20:57:18.384Z,2.00
2018-08-25T20:59:48.281Z,1.70
2018-08-25T21:02:18.260Z,1.67
2018-08-25T21:04:48.155Z,1.70
2018-08-25T21:07:18.050Z,3.20
2018-08-25T21:09:47.943Z,1.70
2018-08-25T21:12:17.835Z,1.77
2018-08-25T21:14:47.730Z,1.93
2018-08-25T21:17:17.621Z,2.30
2018-08-25T21:19:47.512Z,2.40
2018-08-25T21:22:17.395Z,1.87
2018-08-25T21:24:47.286Z,2.47
2018-08-25T21:27:17.158Z,3.57
2018-08-25T21:29:47.042Z,3.27
2018-08-25T21:32:16.922Z,4.70
2018-08-25T21:34:46.822Z,2.00
2018-08-25T21:37:16.710Z,2.93
2018-08-25T21:39:46.604Z,2.70
2018-08-25T21:42:16.474Z,3.40
2018-08-25T21:44:46.361Z,2.10
2018-08-25T21:47:16.655Z,1.80
2018-08-25T21:49:46.581Z,2.10
2018-08-25T21:52:16.462Z,3.00
2018-08-25T21:54:46.354Z,2.63
2018-08-25T21:57:16.239Z,3.57
2018-08-25T21:59:46.127Z,4.10
2018-08-25T22:02:17.038Z,3.07
2018-08-25T22:04:47.178Z,4.57
2018-08-25T22:07:17.033Z,2.83
2018-08-25T22:09:46.972Z,2.10
2018-08-25T22:12:16.903Z,1.93
2018-08-25T22:14:46.771Z,1.70
2018-08-25T22:17:16.627Z,2.67
2018-08-25T22:19:46.494Z,1.93
2018-08-25T22:22:16.363Z,2.10
2018-08-25T22:24:46.237Z,1.93
2018-08-25T22:27:16.109Z,1.77
2018-08-25T22:29:45.974Z,2.90
2018-08-25T22:32:15.822Z,1.50
2018-08-25T22:34:45.675Z,2.30
2018-08-25T22:37:15.534Z,2.13
2018-08-25T22:39:45.408Z,1.97
2018-08-25T22:42:15.271Z,4.57
2018-08-25T22:44:45.143Z,1.30
2018-08-25T22:47:14.999Z,1.50
2018-08-25T22:49:44.869Z,1.63
2018-08-25T22:52:14.822Z,2.13
2018-08-25T22:54:44.706Z,1.43
2018-08-25T22:57:14.570Z,3.53
2018-08-25T22:59:44.435Z,1.77
2018-08-25T23:02:14.370Z,2.00
2018-08-25T23:04:44.267Z,1.73
2018-08-25T23:07:14.137Z,1.70
2018-08-25T23:09:44.039Z,1.40
2018-08-25T23:12:13.942Z,1.70
2018-08-25T23:14:43.832Z,1.50
2018-08-25T23:17:13.762Z,1.57
2018-08-25T23:19:43.598Z,1.87
2018-08-25T23:22:13.474Z,2.17
2018-08-25T23:24:43.446Z,2.00
2018-08-25T23:27:13.355Z,1.93
2018-08-25T23:29:43.255Z,1.50
2018-08-25T23:32:13.787Z,1.30
2018-08-25T23:34:43.683Z,1.50
2018-08-25T23:37:13.582Z,1.33
2018-08-25T23:39:43.471Z,2.13
2018-08-25T23:42:13.354Z,1.73
2018-08-25T23:44:43.307Z,1.20
2018-08-25T23:47:13.190Z,1.47
2018-08-25T23:49:43.073Z,3.53
2018-08-25T23:52:12.964Z,2.17
2018-08-25T23:54:42.840Z,2.87
2018-08-25T23:57:12.719Z,1.50
2018-08-25T23:59:42.611Z,3.47
